Terminal Aerodrome Forecast
Issued by NWS Wilmington, NC

Home | Current Version | Previous Version | Text Only | Print | Product List | Glossary On
Versions: 1 2 3 4 5 6 7 8 9 10 11 12 13 14
835
FTUS42 KILM 141120
TAFFLO
TAF
KFLO 141120Z 1412/1512 03006KT P6SM SKC
     FM141500 05008KT P6SM BKN120
     FM142100 09010KT P6SM SCT050 BKN100
     FM150700 04006KT P6SM -FZRAPL BKN014=

USA.gov is the U.S. government's official web portal to all federal, state and local government web resources and services.